sensor_id;sensor_type;location;lat;lon;timestamp;pressure;altitude;pressure_sealevel;temperature;humidity
27358;BME280;14831;50.474;7.616;2023-01-29T00:01:58;99260;;;-2.5;83.8
27358;BME280;14831;50.474;7.616;2023-01-29T00:06:58;99270;;;-2.4;84.7
27358;BME280;14831;50.474;7.616;2023-01-29T00:11:58;99270;;;-2.5;85.8
27358;BME280;14831;50.474;7.616;2023-01-29T00:16:58;99270;;;-2.6;85.6
27358;BME280;14831;50.474;7.616;2023-01-29T00:21:58;99260;;;-2.8;85.9
27358;BME280;14831;50.474;7.616;2023-01-29T00:26:58;99260;;;-3.0;86.5
27358;BME280;14831;50.474;7.616;2023-01-29T00:31:58;99250;;;-3.1;87.2
27358;BME280;14831;50.474;7.616;2023-01-29T00:36:58;99240;;;-3.3;87.3
27358;BME280;14831;50.474;7.616;2023-01-29T00:41:58;99240;;;-3.4;87.6
27358;BME280;14831;50.474;7.616;2023-01-29T00:46:58;99240;;;-3.6;88.1
27358;BME280;14831;50.474;7.616;2023-01-29T00:51:58;99230;;;-3.7;88.2
27358;BME280;14831;50.474;7.616;2023-01-29T00:56:58;99220;;;-3.8;88.9
27358;BME280;14831;50.474;7.616;2023-01-29T01:01:58;99210;;;-3.8;89.4
27358;BME280;14831;50.474;7.616;2023-01-29T01:06:58;99220;;;-3.9;89.2
27358;BME280;14831;50.474;7.616;2023-01-29T01:11:58;99200;;;-4.0;89.9
27358;BME280;14831;50.474;7.616;2023-01-29T01:16:58;99180;;;-3.9;90.1
27358;BME280;14831;50.474;7.616;2023-01-29T01:21:58;99180;;;-3.9;90.0
27358;BME280;14831;50.474;7.616;2023-01-29T01:26:58;99170;;;-4.0;90.4
27358;BME280;14831;50.474;7.616;2023-01-29T01:31:58;99180;;;-4.1;91.1
27358;BME280;14831;50.474;7.616;2023-01-29T01:36:58;99190;;;-4.2;90.4
27358;BME280;14831;50.474;7.616;2023-01-29T01:41:58;99200;;;-4.3;90.3
27358;BME280;14831;50.474;7.616;2023-01-29T01:46:59;99170;;;-4.4;90.5
27358;BME280;14831;50.474;7.616;2023-01-29T01:51:58;99180;;;-4.5;90.7
27358;BME280;14831;50.474;7.616;2023-01-29T01:56:59;99180;;;-4.5;91.0
27358;BME280;14831;50.474;7.616;2023-01-29T02:01:58;99180;;;-4.7;90.7
27358;BME280;14831;50.474;7.616;2023-01-29T02:06:58;99180;;;-4.8;90.9
27358;BME280;14831;50.474;7.616;2023-01-29T02:11:59;99200;;;-4.6;92.6
27358;BME280;14831;50.474;7.616;2023-01-29T02:16:59;99200;;;-4.3;92.5
27358;BME280;14831;50.474;7.616;2023-01-29T02:22:04;99210;;;-4.2;92.1
27358;BME280;14831;50.474;7.616;2023-01-29T02:27:02;99200;;;-4.4;91.7
27358;BME280;14831;50.474;7.616;2023-01-29T02:32:01;99180;;;-4.6;92.5
27358;BME280;14831;50.474;7.616;2023-01-29T02:37:00;99180;;;-4.8;92.2
27358;BME280;14831;50.474;7.616;2023-01-29T02:41:59;99190;;;-5.0;91.5
27358;BME280;14831;50.474;7.616;2023-01-29T02:46:59;99170;;;-5.0;93.0
27358;BME280;14831;50.474;7.616;2023-01-29T02:51:59;99170;;;-4.9;93.4
27358;BME280;14831;50.474;7.616;2023-01-29T02:56:59;99170;;;-5.0;93.2
27358;BME280;14831;50.474;7.616;2023-01-29T03:01:59;99170;;;-4.9;94.1
27358;BME280;14831;50.474;7.616;2023-01-29T03:06:59;99170;;;-4.9;93.7
27358;BME280;14831;50.474;7.616;2023-01-29T03:12:00;99170;;;-5.1;93.5
27358;BME280;14831;50.474;7.616;2023-01-29T03:16:58;99170;;;-5.3;93.2
27358;BME280;14831;50.474;7.616;2023-01-29T03:21:58;99170;;;-5.3;93.4
27358;BME280;14831;50.474;7.616;2023-01-29T03:27:00;99170;;;-5.5;93.6
27358;BME280;14831;50.474;7.616;2023-01-29T03:31:58;99160;;;-5.6;93.4
27358;BME280;14831;50.474;7.616;2023-01-29T03:36:58;99170;;;-5.6;94.1
27358;BME280;14831;50.474;7.616;2023-01-29T03:41:59;99180;;;-5.7;94.0
27358;BME280;14831;50.474;7.616;2023-01-29T03:47:01;99190;;;-5.6;94.8
27358;BME280;14831;50.474;7.616;2023-01-29T03:51:59;99170;;;-5.6;94.5
27358;BME280;14831;50.474;7.616;2023-01-29T03:56:59;99190;;;-5.5;95.4
27358;BME280;14831;50.474;7.616;2023-01-29T04:01:59;99190;;;-5.3;95.5
27358;BME280;14831;50.474;7.616;2023-01-29T04:06:59;99190;;;-5.0;95.6
27358;BME280;14831;50.474;7.616;2023-01-29T04:11:59;99200;;;-4.9;95.1
27358;BME280;14831;50.474;7.616;2023-01-29T04:16:59;99200;;;-5.0;95.1
27358;BME280;14831;50.474;7.616;2023-01-29T04:22:00;99180;;;-4.9;95.1
27358;BME280;14831;50.474;7.616;2023-01-29T04:27:02;99170;;;-5.1;94.8
27358;BME280;14831;50.474;7.616;2023-01-29T04:31:59;99170;;;-5.2;95.0
27358;BME280;14831;50.474;7.616;2023-01-29T04:37:01;99150;;;-5.3;95.3
27358;BME280;14831;50.474;7.616;2023-01-29T04:42:01;99150;;;-5.4;95.1
27358;BME280;14831;50.474;7.616;2023-01-29T04:47:01;99120;;;-5.4;95.6
27358;BME280;14831;50.474;7.616;2023-01-29T04:52:00;99110;;;-5.3;95.8
27358;BME280;14831;50.474;7.616;2023-01-29T04:57:00;99140;;;-5.4;95.6
27358;BME280;14831;50.474;7.616;2023-01-29T05:01:59;99130;;;-5.5;96.0
27358;BME280;14831;50.474;7.616;2023-01-29T05:07:00;99130;;;-5.6;95.7
27358;BME280;14831;50.474;7.616;2023-01-29T05:11:59;99150;;;-5.7;96.0
27358;BME280;14831;50.474;7.616;2023-01-29T05:16:58;99160;;;-5.3;96.6
27358;BME280;14831;50.474;7.616;2023-01-29T05:21:58;99160;;;-5.2;96.6
27358;BME280;14831;50.474;7.616;2023-01-29T05:27:01;99150;;;-5.1;96.8
27358;BME280;14831;50.474;7.616;2023-01-29T05:31:58;99160;;;-4.9;96.9
27358;BME280;14831;50.474;7.616;2023-01-29T05:36:58;99150;;;-4.7;97.2
27358;BME280;14831;50.474;7.616;2023-01-29T05:41:58;99150;;;-4.7;96.9
27358;BME280;14831;50.474;7.616;2023-01-29T05:46:58;99160;;;-4.6;97.0
27358;BME280;14831;50.474;7.616;2023-01-29T05:51:58;99170;;;-4.5;96.4
27358;BME280;14831;50.474;7.616;2023-01-29T05:56:58;99170;;;-4.4;96.4
27358;BME280;14831;50.474;7.616;2023-01-29T06:01:58;99160;;;-4.3;96.4
27358;BME280;14831;50.474;7.616;2023-01-29T06:06:58;99150;;;-4.2;96.5
27358;BME280;14831;50.474;7.616;2023-01-29T06:11:58;99130;;;-4.0;96.4
27358;BME280;14831;50.474;7.616;2023-01-29T06:16:58;99110;;;-3.9;96.1
27358;BME280;14831;50.474;7.616;2023-01-29T06:21:58;99090;;;-3.9;96.0
27358;BME280;14831;50.474;7.616;2023-01-29T06:26:58;99100;;;-3.9;95.8
27358;BME280;14831;50.474;7.616;2023-01-29T06:31:58;99110;;;-4.0;96.0
27358;BME280;14831;50.474;7.616;2023-01-29T06:36:58;99140;;;-4.0;95.7
27358;BME280;14831;50.474;7.616;2023-01-29T06:41:58;99160;;;-4.0;95.8
27358;BME280;14831;50.474;7.616;2023-01-29T06:46:58;99150;;;-4.0;96.0
27358;BME280;14831;50.474;7.616;2023-01-29T06:51:58;99150;;;-3.9;96.1
27358;BME280;14831;50.474;7.616;2023-01-29T06:56:58;99160;;;-3.9;96.0
27358;BME280;14831;50.474;7.616;2023-01-29T07:01:58;99150;;;-3.9;96.0
27358;BME280;14831;50.474;7.616;2023-01-29T07:06:58;99150;;;-3.9;96.1
27358;BME280;14831;50.474;7.616;2023-01-29T07:11:58;99160;;;-3.9;96.1
27358;BME280;14831;50.474;7.616;2023-01-29T07:16:58;99170;;;-3.9;96.1
27358;BME280;14831;50.474;7.616;2023-01-29T07:21:58;99160;;;-3.9;95.9
27358;BME280;14831;50.474;7.616;2023-01-29T07:26:58;99170;;;-3.9;95.8
27358;BME280;14831;50.474;7.616;2023-01-29T07:31:58;99180;;;-3.9;95.6
27358;BME280;14831;50.474;7.616;2023-01-29T07:36:58;99180;;;-3.9;94.8
27358;BME280;14831;50.474;7.616;2023-01-29T07:41:58;99190;;;-3.9;94.3
27358;BME280;14831;50.474;7.616;2023-01-29T07:46:58;99190;;;-4.0;93.6
27358;BME280;14831;50.474;7.616;2023-01-29T07:51:58;99200;;;-3.9;92.5
27358;BME280;14831;50.474;7.616;2023-01-29T07:56:58;99180;;;-3.8;92.7
27358;BME280;14831;50.474;7.616;2023-01-29T08:01:58;99200;;;-3.8;92.7
27358;BME280;14831;50.474;7.616;2023-01-29T08:06:58;99200;;;-3.7;92.8
27358;BME280;14831;50.474;7.616;2023-01-29T08:11:58;99190;;;-3.7;92.7
27358;BME280;14831;50.474;7.616;2023-01-29T08:16:58;99200;;;-3.7;91.8
27358;BME280;14831;50.474;7.616;2023-01-29T08:21:58;99210;;;-3.5;91.8
27358;BME280;14831;50.474;7.616;2023-01-29T08:26:58;99200;;;-3.6;91.4
27358;BME280;14831;50.474;7.616;2023-01-29T08:31:58;99190;;;-3.4;91.2
27358;BME280;14831;50.474;7.616;2023-01-29T08:36:58;99180;;;-3.2;90.9
27358;BME280;14831;50.474;7.616;2023-01-29T08:41:58;99190;;;-3.2;90.0
27358;BME280;14831;50.474;7.616;2023-01-29T08:46:58;99190;;;-3.2;89.1
27358;BME280;14831;50.474;7.616;2023-01-29T08:51:58;99190;;;-3.2;88.8
27358;BME280;14831;50.474;7.616;2023-01-29T08:56:58;99200;;;-3.1;88.7
27358;BME280;14831;50.474;7.616;2023-01-29T09:01:58;99210;;;-3.1;87.5
27358;BME280;14831;50.474;7.616;2023-01-29T09:06:58;99190;;;-3.1;87.5
27358;BME280;14831;50.474;7.616;2023-01-29T09:11:58;99190;;;-3.2;86.5
27358;BME280;14831;50.474;7.616;2023-01-29T09:16:58;99230;;;-3.1;86.8
27358;BME280;14831;50.474;7.616;2023-01-29T09:21:58;99220;;;-3.1;86.8
27358;BME280;14831;50.474;7.616;2023-01-29T09:26:58;99240;;;-3.0;86.7
27358;BME280;14831;50.474;7.616;2023-01-29T09:31:58;99240;;;-3.1;85.6
27358;BME280;14831;50.474;7.616;2023-01-29T09:36:58;99230;;;-3.0;85.6
27358;BME280;14831;50.474;7.616;2023-01-29T09:41:59;99240;;;-2.9;86.1
27358;BME280;14831;50.474;7.616;2023-01-29T09:46:58;99250;;;-2.8;85.4
27358;BME280;14831;50.474;7.616;2023-01-29T09:52:00;99260;;;-2.8;85.4
27358;BME280;14831;50.474;7.616;2023-01-29T09:56:58;99230;;;-2.8;84.9
27358;BME280;14831;50.474;7.616;2023-01-29T10:02:01;99210;;;-2.7;85.4
27358;BME280;14831;50.474;7.616;2023-01-29T10:07:01;99200;;;-2.6;85.4
27358;BME280;14831;50.474;7.616;2023-01-29T10:12:00;99180;;;-2.5;84.7
27358;BME280;14831;50.474;7.616;2023-01-29T10:17:01;99190;;;-2.6;84.5
27358;BME280;14831;50.474;7.616;2023-01-29T10:22:02;99180;;;-2.7;84.7
27358;BME280;14831;50.474;7.616;2023-01-29T10:26:58;99180;;;-2.7;84.0
27358;BME280;14831;50.474;7.616;2023-01-29T10:31:59;99170;;;-2.5;84.6
27358;BME280;14831;50.474;7.616;2023-01-29T10:36:58;99150;;;-2.2;83.5
27358;BME280;14831;50.474;7.616;2023-01-29T10:42:03;99150;;;-2.3;84.6
27358;BME280;14831;50.474;7.616;2023-01-29T10:47:03;99170;;;-2.6;84.8
27358;BME280;14831;50.474;7.616;2023-01-29T10:52:03;99170;;;-2.2;85.2
27358;BME280;14831;50.474;7.616;2023-01-29T10:57:01;99140;;;-2.3;83.7
27358;BME280;14831;50.474;7.616;2023-01-29T11:01:58;99140;;;-2.3;83.2
27358;BME280;14831;50.474;7.616;2023-01-29T11:06:58;99120;;;-2.2;83.8
27358;BME280;14831;50.474;7.616;2023-01-29T11:11:59;99130;;;-2.2;83.5
27358;BME280;14831;50.474;7.616;2023-01-29T11:16:58;99130;;;-2.2;83.4
27358;BME280;14831;50.474;7.616;2023-01-29T11:21:59;99090;;;-2.1;83.2
27358;BME280;14831;50.474;7.616;2023-01-29T11:26:58;99090;;;-2.1;82.9
27358;BME280;14831;50.474;7.616;2023-01-29T11:31:58;99100;;;-2.1;83.4
27358;BME280;14831;50.474;7.616;2023-01-29T11:36:59;99100;;;-1.9;83.0
27358;BME280;14831;50.474;7.616;2023-01-29T11:41:59;99090;;;-1.6;81.8
27358;BME280;14831;50.474;7.616;2023-01-29T11:47:08;99100;;;-1.9;81.7
27358;BME280;14831;50.474;7.616;2023-01-29T11:51:59;99100;;;-2.0;82.7
27358;BME280;14831;50.474;7.616;2023-01-29T11:56:58;99080;;;-2.1;82.9
27358;BME280;14831;50.474;7.616;2023-01-29T12:06:58;99070;;;-1.8;81.9
27358;BME280;14831;50.474;7.616;2023-01-29T12:12:07;99070;;;-1.5;81.4
27358;BME280;14831;50.474;7.616;2023-01-29T12:17:00;99050;;;-1.5;82.0
27358;BME280;14831;50.474;7.616;2023-01-29T12:21:59;99060;;;-1.2;81.3
27358;BME280;14831;50.474;7.616;2023-01-29T12:27:00;99000;;;-0.9;79.8
27358;BME280;14831;50.474;7.616;2023-01-29T12:32:01;98980;;;-0.9;78.6
27358;BME280;14831;50.474;7.616;2023-01-29T12:36:59;98980;;;-0.6;78.2
27358;BME280;14831;50.474;7.616;2023-01-29T12:41:58;99010;;;-0.6;77.7
27358;BME280;14831;50.474;7.616;2023-01-29T12:46:59;99000;;;-0.9;78.6
27358;BME280;14831;50.474;7.616;2023-01-29T12:51:59;98980;;;-0.6;78.7
27358;BME280;14831;50.474;7.616;2023-01-29T12:56:59;98980;;;-0.5;77.9
27358;BME280;14831;50.474;7.616;2023-01-29T13:01:59;98980;;;-0.5;78.8
27358;BME280;14831;50.474;7.616;2023-01-29T13:07:00;98990;;;-0.4;77.6
27358;BME280;14831;50.474;7.616;2023-01-29T13:11:59;99020;;;-0.6;78.5
27358;BME280;14831;50.474;7.616;2023-01-29T13:17:01;99000;;;-0.7;77.7
27358;BME280;14831;50.474;7.616;2023-01-29T13:21:59;98990;;;-0.8;78.3
27358;BME280;14831;50.474;7.616;2023-01-29T13:26:58;98960;;;-0.7;78.2
27358;BME280;14831;50.474;7.616;2023-01-29T13:31:58;98970;;;-0.6;78.0
27358;BME280;14831;50.474;7.616;2023-01-29T13:36:59;98980;;;-0.4;78.0
27358;BME280;14831;50.474;7.616;2023-01-29T13:41:59;98970;;;-0.5;78.3
27358;BME280;14831;50.474;7.616;2023-01-29T13:46:59;98970;;;-0.4;78.1
27358;BME280;14831;50.474;7.616;2023-01-29T13:51:58;98970;;;-0.2;77.9
27358;BME280;14831;50.474;7.616;2023-01-29T13:56:59;98970;;;-0.3;77.7
27358;BME280;14831;50.474;7.616;2023-01-29T14:01:59;98970;;;-0.3;77.1
27358;BME280;14831;50.474;7.616;2023-01-29T14:06:58;98980;;;-0.3;77.2
27358;BME280;14831;50.474;7.616;2023-01-29T14:11:58;98990;;;-0.1;77.3
27358;BME280;14831;50.474;7.616;2023-01-29T14:16:59;98970;;;-0.1;76.9
27358;BME280;14831;50.474;7.616;2023-01-29T14:21:58;98960;;;-0.2;77.2
27358;BME280;14831;50.474;7.616;2023-01-29T14:26:58;98950;;;-0.1;76.9
27358;BME280;14831;50.474;7.616;2023-01-29T14:31:59;98950;;;-0.2;77.0
27358;BME280;14831;50.474;7.616;2023-01-29T14:37:00;98940;;;-0.3;77.4
27358;BME280;14831;50.474;7.616;2023-01-29T14:41:58;98930;;;-0.3;77.6
27358;BME280;14831;50.474;7.616;2023-01-29T14:46:58;98920;;;-0.4;77.3
27358;BME280;14831;50.474;7.616;2023-01-29T14:51:58;98910;;;-0.5;78.3
27358;BME280;14831;50.474;7.616;2023-01-29T14:56:59;98910;;;-0.6;78.1
27358;BME280;14831;50.474;7.616;2023-01-29T15:01:59;98910;;;-0.7;78.9
27358;BME280;14831;50.474;7.616;2023-01-29T15:07:00;98900;;;-0.8;79.1
27358;BME280;14831;50.474;7.616;2023-01-29T15:11:59;98890;;;-0.9;79.6
27358;BME280;14831;50.474;7.616;2023-01-29T15:17:03;98880;;;-0.9;79.6
27358;BME280;14831;50.474;7.616;2023-01-29T15:22:02;98880;;;-0.9;79.5
27358;BME280;14831;50.474;7.616;2023-01-29T15:26:58;98880;;;-0.9;79.7
27358;BME280;14831;50.474;7.616;2023-01-29T15:31:58;98880;;;-0.9;79.6
27358;BME280;14831;50.474;7.616;2023-01-29T15:36:58;98890;;;-1.0;79.9
27358;BME280;14831;50.474;7.616;2023-01-29T15:42:14;98890;;;-1.0;80.2
27358;BME280;14831;50.474;7.616;2023-01-29T15:46:59;98880;;;-1.0;80.1
27358;BME280;14831;50.474;7.616;2023-01-29T15:51:59;98880;;;-1.0;80.0
27358;BME280;14831;50.474;7.616;2023-01-29T15:56:58;98880;;;-1.0;80.2
27358;BME280;14831;50.474;7.616;2023-01-29T16:02:01;98880;;;-1.1;80.9
27358;BME280;14831;50.474;7.616;2023-01-29T16:06:58;98880;;;-1.2;81.1
27358;BME280;14831;50.474;7.616;2023-01-29T16:11:58;98880;;;-1.3;81.7
27358;BME280;14831;50.474;7.616;2023-01-29T16:17:08;98880;;;-1.4;82.1
27358;BME280;14831;50.474;7.616;2023-01-29T16:21:58;98890;;;-1.5;82.8
27358;BME280;14831;50.474;7.616;2023-01-29T16:26:59;98890;;;-1.6;82.9
27358;BME280;14831;50.474;7.616;2023-01-29T16:31:59;98870;;;-1.7;83.4
27358;BME280;14831;50.474;7.616;2023-01-29T16:36:58;98890;;;-1.7;83.6
27358;BME280;14831;50.474;7.616;2023-01-29T16:42:30;98880;;;-1.8;84.4
27358;BME280;14831;50.474;7.616;2023-01-29T16:47:05;98880;;;-1.9;84.4
27358;BME280;14831;50.474;7.616;2023-01-29T16:52:00;98890;;;-1.9;84.5
27358;BME280;14831;50.474;7.616;2023-01-29T16:56:58;98880;;;-1.9;84.4
27358;BME280;14831;50.474;7.616;2023-01-29T17:01:58;98880;;;-1.9;84.6
27358;BME280;14831;50.474;7.616;2023-01-29T17:06:59;98890;;;-1.8;84.1
27358;BME280;14831;50.474;7.616;2023-01-29T17:12:00;98880;;;-1.7;83.7
27358;BME280;14831;50.474;7.616;2023-01-29T17:17:00;98880;;;-1.7;83.7
27358;BME280;14831;50.474;7.616;2023-01-29T17:21:59;98880;;;-1.6;82.5
27358;BME280;14831;50.474;7.616;2023-01-29T17:26:58;98870;;;-1.6;81.5
27358;BME280;14831;50.474;7.616;2023-01-29T17:31:58;98880;;;-1.5;81.5
27358;BME280;14831;50.474;7.616;2023-01-29T17:36:58;98860;;;-1.5;81.7
27358;BME280;14831;50.474;7.616;2023-01-29T17:41:58;98850;;;-1.5;81.9
27358;BME280;14831;50.474;7.616;2023-01-29T17:46:58;98860;;;-1.6;81.9
27358;BME280;14831;50.474;7.616;2023-01-29T17:51:58;98870;;;-1.6;82.4
27358;BME280;14831;50.474;7.616;2023-01-29T17:56:58;98850;;;-1.6;82.2
27358;BME280;14831;50.474;7.616;2023-01-29T18:01:58;98860;;;-1.6;82.7
27358;BME280;14831;50.474;7.616;2023-01-29T18:06:58;98850;;;-1.6;83.3
27358;BME280;14831;50.474;7.616;2023-01-29T18:11:58;98840;;;-1.7;84.0
27358;BME280;14831;50.474;7.616;2023-01-29T18:16:58;98830;;;-1.7;84.7
27358;BME280;14831;50.474;7.616;2023-01-29T18:21:58;98830;;;-1.8;85.3
27358;BME280;14831;50.474;7.616;2023-01-29T18:26:58;98820;;;-1.9;85.6
27358;BME280;14831;50.474;7.616;2023-01-29T18:31:58;98830;;;-2.0;85.6
27358;BME280;14831;50.474;7.616;2023-01-29T18:36:58;98820;;;-2.0;85.6
27358;BME280;14831;50.474;7.616;2023-01-29T18:41:58;98800;;;-2.1;86.1
27358;BME280;14831;50.474;7.616;2023-01-29T18:46:58;98790;;;-2.1;86.4
27358;BME280;14831;50.474;7.616;2023-01-29T18:51:58;98770;;;-2.1;86.1
27358;BME280;14831;50.474;7.616;2023-01-29T18:56:58;98770;;;-2.1;86.1
27358;BME280;14831;50.474;7.616;2023-01-29T19:01:58;98780;;;-2.1;85.9
27358;BME280;14831;50.474;7.616;2023-01-29T19:06:58;98780;;;-2.0;86.0
27358;BME280;14831;50.474;7.616;2023-01-29T19:11:58;98780;;;-2.0;86.1
27358;BME280;14831;50.474;7.616;2023-01-29T19:16:58;98780;;;-2.0;85.9
27358;BME280;14831;50.474;7.616;2023-01-29T19:21:58;98760;;;-2.0;85.6
27358;BME280;14831;50.474;7.616;2023-01-29T19:26:58;98760;;;-1.9;85.6
27358;BME280;14831;50.474;7.616;2023-01-29T19:31:58;98750;;;-1.9;85.8
27358;BME280;14831;50.474;7.616;2023-01-29T19:36:58;98760;;;-1.9;85.2
27358;BME280;14831;50.474;7.616;2023-01-29T19:41:58;98740;;;-1.9;85.2
27358;BME280;14831;50.474;7.616;2023-01-29T19:46:58;98740;;;-1.9;84.8
27358;BME280;14831;50.474;7.616;2023-01-29T19:51:58;98730;;;-1.9;84.5
27358;BME280;14831;50.474;7.616;2023-01-29T19:56:58;98720;;;-1.9;84.8
27358;BME280;14831;50.474;7.616;2023-01-29T20:01:58;98710;;;-1.9;85.1
27358;BME280;14831;50.474;7.616;2023-01-29T20:06:58;98700;;;-1.9;85.0
27358;BME280;14831;50.474;7.616;2023-01-29T20:11:58;98720;;;-1.8;85.5
27358;BME280;14831;50.474;7.616;2023-01-29T20:16:58;98700;;;-1.8;85.4
27358;BME280;14831;50.474;7.616;2023-01-29T20:21:58;98690;;;-1.8;85.4
27358;BME280;14831;50.474;7.616;2023-01-29T20:26:58;98690;;;-1.8;85.8
27358;BME280;14831;50.474;7.616;2023-01-29T20:31:58;98690;;;-1.8;86.3
27358;BME280;14831;50.474;7.616;2023-01-29T20:36:58;98710;;;-1.8;86.5
27358;BME280;14831;50.474;7.616;2023-01-29T20:41:58;98690;;;-1.7;86.9
27358;BME280;14831;50.474;7.616;2023-01-29T20:46:58;98680;;;-1.7;86.7
27358;BME280;14831;50.474;7.616;2023-01-29T20:51:58;98670;;;-1.6;86.8
27358;BME280;14831;50.474;7.616;2023-01-29T20:56:58;98670;;;-1.6;86.5
27358;BME280;14831;50.474;7.616;2023-01-29T21:01:58;98660;;;-1.6;86.5
27358;BME280;14831;50.474;7.616;2023-01-29T21:06:58;98640;;;-1.6;86.6
27358;BME280;14831;50.474;7.616;2023-01-29T21:11:58;98620;;;-1.6;86.5
27358;BME280;14831;50.474;7.616;2023-01-29T21:16:58;98610;;;-1.6;86.9
27358;BME280;14831;50.474;7.616;2023-01-29T21:21:58;98600;;;-1.6;86.9
27358;BME280;14831;50.474;7.616;2023-01-29T21:26:58;98570;;;-1.6;86.9
27358;BME280;14831;50.474;7.616;2023-01-29T21:31:58;98560;;;-1.6;87.5
27358;BME280;14831;50.474;7.616;2023-01-29T21:36:58;98560;;;-1.6;87.6
27358;BME280;14831;50.474;7.616;2023-01-29T21:41:58;98570;;;-1.6;87.9
27358;BME280;14831;50.474;7.616;2023-01-29T21:46:58;98560;;;-1.6;88.4
27358;BME280;14831;50.474;7.616;2023-01-29T21:51:58;98580;;;-1.5;88.5
27358;BME280;14831;50.474;7.616;2023-01-29T21:56:58;98570;;;-1.5;88.6
27358;BME280;14831;50.474;7.616;2023-01-29T22:01:58;98570;;;-1.4;88.7
27358;BME280;14831;50.474;7.616;2023-01-29T22:06:58;98570;;;-1.4;89.3
27358;BME280;14831;50.474;7.616;2023-01-29T22:11:58;98550;;;-1.3;90.0
27358;BME280;14831;50.474;7.616;2023-01-29T22:16:58;98530;;;-1.2;90.4
27358;BME280;14831;50.474;7.616;2023-01-29T22:21:58;98540;;;-1.2;91.0
27358;BME280;14831;50.474;7.616;2023-01-29T22:26:58;98550;;;-1.2;90.9
27358;BME280;14831;50.474;7.616;2023-01-29T22:31:58;98540;;;-1.2;90.7
27358;BME280;14831;50.474;7.616;2023-01-29T22:36:58;98540;;;-1.2;90.5
27358;BME280;14831;50.474;7.616;2023-01-29T22:41:58;98520;;;-1.2;91.4
27358;BME280;14831;50.474;7.616;2023-01-29T22:46:59;98540;;;-1.2;91.9
27358;BME280;14831;50.474;7.616;2023-01-29T22:51:58;98530;;;-1.3;92.0
27358;BME280;14831;50.474;7.616;2023-01-29T22:56:58;98530;;;-1.3;91.8
27358;BME280;14831;50.474;7.616;2023-01-29T23:01:58;98530;;;-1.3;91.8
27358;BME280;14831;50.474;7.616;2023-01-29T23:06:58;98540;;;-1.2;91.8
27358;BME280;14831;50.474;7.616;2023-01-29T23:11:58;98550;;;-1.2;91.6
27358;BME280;14831;50.474;7.616;2023-01-29T23:16:58;98540;;;-1.2;91.7
27358;BME280;14831;50.474;7.616;2023-01-29T23:21:58;98530;;;-1.1;92.7
27358;BME280;14831;50.474;7.616;2023-01-29T23:26:58;98520;;;-1.1;94.5
27358;BME280;14831;50.474;7.616;2023-01-29T23:31:58;98520;;;-1.1;94.8
27358;BME280;14831;50.474;7.616;2023-01-29T23:36:58;98510;;;-1.2;95.2
27358;BME280;14831;50.474;7.616;2023-01-29T23:41:58;98510;;;-1.2;95.5
27358;BME280;14831;50.474;7.616;2023-01-29T23:46:58;98500;;;-1.1;95.6
27358;BME280;14831;50.474;7.616;2023-01-29T23:51:58;98480;;;-1.1;95.9
27358;BME280;14831;50.474;7.616;2023-01-29T23:56:58;98460;;;-1.1;97.0
